Charleston Heights, South Carolina
Current Conditions -  °F | °C
As of 6:56 PM on Thursday 27 Nov 2014 (Local Time) from KCHS Reporting Station
Clear Clear  
Wind Chill: 45°   Ceiling: Unl
Heat Index: 47°   Visibility: 10mi
Dew Point: 32°   Wind: 5mph
Humidity: 56%   Direction: 270°W
Pressure: 30.22"   Gusts: NA
Location:  32.8713°N, 80.0388°W
Report Text: KCHS 272356Z 27004KT 10SM CLR 08/00 A3022 RMK AO2 SLP232 T00830000 10139 20083 51025
Loading
Personal Weather Stations






























Interactive Weather Map New forecast layout! Learn more

10-Day Weather Forecast

Advertisements
Track Severe Weather on mobile